<?xml version="1.0" encoding="UTF-8" standalone="no" ?>
<gpx xmlns="http://www.topografix.com/GPX/1/1" xmlns:xsi="http://www.w3.org/2001/XMLSchema-instance" xsi:schemaLocation="http://www.topografix.com/GPX/1/1 http://www.topografix.com/GPX/1/1/gpx.xsd" version="1.1" creator="VisuGPX - https://www.visugpx.com">
  <metadata>
    <name>FONTAINE-CSMG</name>
    <desc><![CDATA[Deux routes alternative pour conduire les enfants à Gosselies.]]></desc>
  </metadata>
  <wpt lat="50.46085" lon="4.4294">
    <ele>170</ele>
    <name><![CDATA[CSMG]]></name>
    <desc><![CDATA[Faubourg de Charleroi 62]]></desc>
    <cmt><![CDATA[Faubourg de Charleroi 62]]></cmt>
  </wpt>
  <wpt lat="50.40802" lon="4.32521">
    <ele>150.1</ele>
    <name><![CDATA[Pharmacie]]></name>
    <desc><![CDATA[Rue Louis Delattre 19]]></desc>
    <cmt><![CDATA[Rue Louis Delattre 19]]></cmt>
  </wpt>
  <trk>
    <name><![CDATA[Tracé]]></name>
    <trkseg>
      <trkpt lat="50.41026" lon="4.32843">
        <ele>161.57</ele>
        <time>2014-08-31T16:33:17Z</time>
      </trkpt>
      <trkpt lat="50.41053" lon="4.32881">
        <ele>158.21</ele>
        <time>2014-08-31T16:33:22Z</time>
      </trkpt>
      <trkpt lat="50.41102" lon="4.32954">
        <ele>154.42</ele>
        <time>2014-08-31T16:33:29Z</time>
      </trkpt>
      <trkpt lat="50.41135" lon="4.33002">
        <ele>151.97</ele>
        <time>2014-08-31T16:33:36Z</time>
      </trkpt>
      <trkpt lat="50.412" lon="4.33078">
        <ele>152.65</ele>
        <time>2014-08-31T16:33:45Z</time>
      </trkpt>
      <trkpt lat="50.41264" lon="4.3313">
        <ele>155.82</ele>
        <time>2014-08-31T16:33:53Z</time>
      </trkpt>
      <trkpt lat="50.41275" lon="4.33135">
        <ele>156.57</ele>
        <time>2014-08-31T16:33:55Z</time>
      </trkpt>
      <trkpt lat="50.41279" lon="4.33132">
        <ele>156.91</ele>
        <time>2014-08-31T16:33:56Z</time>
      </trkpt>
      <trkpt lat="50.41283" lon="4.33127">
        <ele>157.51</ele>
        <time>2014-08-31T16:33:57Z</time>
      </trkpt>
      <trkpt lat="50.41286" lon="4.33119">
        <ele>157.79</ele>
        <time>2014-08-31T16:33:58Z</time>
      </trkpt>
      <trkpt lat="50.4129" lon="4.3311">
        <ele>158.1</ele>
        <time>2014-08-31T16:33:59Z</time>
      </trkpt>
      <trkpt lat="50.41294" lon="4.33101">
        <ele>158.46</ele>
        <time>2014-08-31T16:34:00Z</time>
      </trkpt>
      <trkpt lat="50.41304" lon="4.33084">
        <ele>159.16</ele>
        <time>2014-08-31T16:34:02Z</time>
      </trkpt>
      <trkpt lat="50.41309" lon="4.33077">
        <ele>159.48</ele>
        <time>2014-08-31T16:34:03Z</time>
      </trkpt>
      <trkpt lat="50.41315" lon="4.33073">
        <ele>159.79</ele>
        <time>2014-08-31T16:34:04Z</time>
      </trkpt>
      <trkpt lat="50.41322" lon="4.33069">
        <ele>160.14</ele>
        <time>2014-08-31T16:34:05Z</time>
      </trkpt>
      <trkpt lat="50.41329" lon="4.33067">
        <ele>160.55</ele>
        <time>2014-08-31T16:34:06Z</time>
      </trkpt>
      <trkpt lat="50.41339" lon="4.33065">
        <ele>161.03</ele>
        <time>2014-08-31T16:34:07Z</time>
      </trkpt>
      <trkpt lat="50.4135" lon="4.33064">
        <ele>161.57</ele>
        <time>2014-08-31T16:34:08Z</time>
      </trkpt>
      <trkpt lat="50.41417" lon="4.33059">
        <ele>164.61</ele>
        <time>2014-08-31T16:34:15Z</time>
      </trkpt>
      <trkpt lat="50.41499" lon="4.33039">
        <ele>167.94</ele>
        <time>2014-08-31T16:34:24Z</time>
      </trkpt>
      <trkpt lat="50.41528" lon="4.33036">
        <ele>168.92</ele>
        <time>2014-08-31T16:34:28Z</time>
      </trkpt>
      <trkpt lat="50.41533" lon="4.33039">
        <ele>169.11</ele>
        <time>2014-08-31T16:34:29Z</time>
      </trkpt>
      <trkpt lat="50.41538" lon="4.33044">
        <ele>169.32</ele>
        <time>2014-08-31T16:34:30Z</time>
      </trkpt>
      <trkpt lat="50.41543" lon="4.33051">
        <ele>169.58</ele>
        <time>2014-08-31T16:34:31Z</time>
      </trkpt>
      <trkpt lat="50.41548" lon="4.3306">
        <ele>169.89</ele>
        <time>2014-08-31T16:34:32Z</time>
      </trkpt>
      <trkpt lat="50.41594" lon="4.33138">
        <ele>173.24</ele>
        <time>2014-08-31T16:34:39Z</time>
      </trkpt>
      <trkpt lat="50.41629" lon="4.33215">
        <ele>176.37</ele>
        <time>2014-08-31T16:34:44Z</time>
      </trkpt>
      <trkpt lat="50.41655" lon="4.33272">
        <ele>178.3</ele>
        <time>2014-08-31T16:34:48Z</time>
      </trkpt>
      <trkpt lat="50.41662" lon="4.33284">
        <ele>178.52</ele>
        <time>2014-08-31T16:34:49Z</time>
      </trkpt>
      <trkpt lat="50.41669" lon="4.33295">
        <ele>178.69</ele>
        <time>2014-08-31T16:34:50Z</time>
      </trkpt>
      <trkpt lat="50.41695" lon="4.33334">
        <ele>179.78</ele>
        <time>2014-08-31T16:34:57Z</time>
      </trkpt>
      <trkpt lat="50.41709" lon="4.33352">
        <ele>180.4</ele>
        <time>2014-08-31T16:35:06Z</time>
      </trkpt>
      <trkpt lat="50.41713" lon="4.33357">
        <ele>180.49</ele>
        <time>2014-08-31T16:35:07Z</time>
      </trkpt>
      <trkpt lat="50.41742" lon="4.33419">
        <ele>181.32</ele>
        <time>2014-08-31T16:35:15Z</time>
      </trkpt>
      <trkpt lat="50.41743" lon="4.33428">
        <ele>181.33</ele>
        <time>2014-08-31T16:35:16Z</time>
      </trkpt>
      <trkpt lat="50.41742" lon="4.33439">
        <ele>181.34</ele>
        <time>2014-08-31T16:35:17Z</time>
      </trkpt>
      <trkpt lat="50.4174" lon="4.3345">
        <ele>181.34</ele>
        <time>2014-08-31T16:35:18Z</time>
      </trkpt>
      <trkpt lat="50.41738" lon="4.33463">
        <ele>181.35</ele>
        <time>2014-08-31T16:35:19Z</time>
      </trkpt>
      <trkpt lat="50.41722" lon="4.33604">
        <ele>182.32</ele>
        <time>2014-08-31T16:35:29Z</time>
      </trkpt>
      <trkpt lat="50.41723" lon="4.3362">
        <ele>182.4</ele>
        <time>2014-08-31T16:35:30Z</time>
      </trkpt>
      <trkpt lat="50.41728" lon="4.33674">
        <ele>182.58</ele>
        <time>2014-08-31T16:35:34Z</time>
      </trkpt>
      <trkpt lat="50.41726" lon="4.33687">
        <ele>182.58</ele>
        <time>2014-08-31T16:35:35Z</time>
      </trkpt>
      <trkpt lat="50.41724" lon="4.33698">
        <ele>182.58</ele>
        <time>2014-08-31T16:35:36Z</time>
      </trkpt>
      <trkpt lat="50.4172" lon="4.3371">
        <ele>182.58</ele>
        <time>2014-08-31T16:35:37Z</time>
      </trkpt>
      <trkpt lat="50.41715" lon="4.33721">
        <ele>182.61</ele>
        <time>2014-08-31T16:35:38Z</time>
      </trkpt>
      <trkpt lat="50.41709" lon="4.33733">
        <ele>182.67</ele>
        <time>2014-08-31T16:35:39Z</time>
      </trkpt>
      <trkpt lat="50.41694" lon="4.33772">
        <ele>182.99</ele>
        <time>2014-08-31T16:35:42Z</time>
      </trkpt>
      <trkpt lat="50.41691" lon="4.33785">
        <ele>183.12</ele>
        <time>2014-08-31T16:35:43Z</time>
      </trkpt>
      <trkpt lat="50.41684" lon="4.33817">
        <ele>183.4</ele>
        <time>2014-08-31T16:35:49Z</time>
      </trkpt>
      <trkpt lat="50.41677" lon="4.33897">
        <ele>184.24</ele>
        <time>2014-08-31T16:35:57Z</time>
      </trkpt>
      <trkpt lat="50.41673" lon="4.33932">
        <ele>184.36</ele>
        <time>2014-08-31T16:36:01Z</time>
      </trkpt>
      <trkpt lat="50.41674" lon="4.33939">
        <ele>184.34</ele>
        <time>2014-08-31T16:36:02Z</time>
      </trkpt>
      <trkpt lat="50.41677" lon="4.33946">
        <ele>184.32</ele>
        <time>2014-08-31T16:36:03Z</time>
      </trkpt>
      <trkpt lat="50.41681" lon="4.33952">
        <ele>184.31</ele>
        <time>2014-08-31T16:36:04Z</time>
      </trkpt>
      <trkpt lat="50.41685" lon="4.3396">
        <ele>184.4</ele>
        <time>2014-08-31T16:36:05Z</time>
      </trkpt>
      <trkpt lat="50.41692" lon="4.33966">
        <ele>184.5</ele>
        <time>2014-08-31T16:36:06Z</time>
      </trkpt>
      <trkpt lat="50.41699" lon="4.33972">
        <ele>184.62</ele>
        <time>2014-08-31T16:36:07Z</time>
      </trkpt>
      <trkpt lat="50.41706" lon="4.33978">
        <ele>184.74</ele>
        <time>2014-08-31T16:36:08Z</time>
      </trkpt>
      <trkpt lat="50.41714" lon="4.33983">
        <ele>184.89</ele>
        <time>2014-08-31T16:36:09Z</time>
      </trkpt>
      <trkpt lat="50.41737" lon="4.34005">
        <ele>185.59</ele>
        <time>2014-08-31T16:36:12Z</time>
      </trkpt>
      <trkpt lat="50.41745" lon="4.34016">
        <ele>185.79</ele>
        <time>2014-08-31T16:36:13Z</time>
      </trkpt>
      <trkpt lat="50.41751" lon="4.34028">
        <ele>185.95</ele>
        <time>2014-08-31T16:36:14Z</time>
      </trkpt>
      <trkpt lat="50.41756" lon="4.34042">
        <ele>186.07</ele>
        <time>2014-08-31T16:36:15Z</time>
      </trkpt>
      <trkpt lat="50.41759" lon="4.34057">
        <ele>186.1</ele>
        <time>2014-08-31T16:36:16Z</time>
      </trkpt>
      <trkpt lat="50.41762" lon="4.34074">
        <ele>186.07</ele>
        <time>2014-08-31T16:36:17Z</time>
      </trkpt>
      <trkpt lat="50.41765" lon="4.34092">
        <ele>186.01</ele>
        <time>2014-08-31T16:36:18Z</time>
      </trkpt>
      <trkpt lat="50.41796" lon="4.34295">
        <ele>185.02</ele>
        <time>2014-08-31T16:36:27Z</time>
      </trkpt>
      <trkpt lat="50.41815" lon="4.34449">
        <ele>181.54</ele>
        <time>2014-08-31T16:36:33Z</time>
      </trkpt>
      <trkpt lat="50.41831" lon="4.34582">
        <ele>177.94</ele>
        <time>2014-08-31T16:36:38Z</time>
      </trkpt>
      <trkpt lat="50.41848" lon="4.34717">
        <ele>174.39</ele>
        <time>2014-08-31T16:36:43Z</time>
      </trkpt>
      <trkpt lat="50.41903" lon="4.34957">
        <ele>173.87</ele>
        <time>2014-08-31T16:36:52Z</time>
      </trkpt>
      <trkpt lat="50.41936" lon="4.35039">
        <ele>176.97</ele>
        <time>2014-08-31T16:36:56Z</time>
      </trkpt>
      <trkpt lat="50.41953" lon="4.35074">
        <ele>180.38</ele>
        <time>2014-08-31T16:36:58Z</time>
      </trkpt>
      <trkpt lat="50.41983" lon="4.35119">
        <ele>184.25</ele>
        <time>2014-08-31T16:37:01Z</time>
      </trkpt>
      <trkpt lat="50.41995" lon="4.35131">
        <ele>185.61</ele>
        <time>2014-08-31T16:37:02Z</time>
      </trkpt>
      <trkpt lat="50.42008" lon="4.35141">
        <ele>186.99</ele>
        <time>2014-08-31T16:37:03Z</time>
      </trkpt>
      <trkpt lat="50.42047" lon="4.35169">
        <ele>191.21</ele>
        <time>2014-08-31T16:37:06Z</time>
      </trkpt>
      <trkpt lat="50.42083" lon="4.3519">
        <ele>194.98</ele>
        <time>2014-08-31T16:37:09Z</time>
      </trkpt>
      <trkpt lat="50.42113" lon="4.35211">
        <ele>198.24</ele>
        <time>2014-08-31T16:37:13Z</time>
      </trkpt>
      <trkpt lat="50.42145" lon="4.35238">
        <ele>200.43</ele>
        <time>2014-08-31T16:37:18Z</time>
      </trkpt>
      <trkpt lat="50.42151" lon="4.35246">
        <ele>200.74</ele>
        <time>2014-08-31T16:37:19Z</time>
      </trkpt>
      <trkpt lat="50.42214" lon="4.35333">
        <ele>202.95</ele>
        <time>2014-08-31T16:37:31Z</time>
      </trkpt>
      <trkpt lat="50.42254" lon="4.35393">
        <ele>203.84</ele>
        <time>2014-08-31T16:37:39Z</time>
      </trkpt>
      <trkpt lat="50.42312" lon="4.35483">
        <ele>204.45</ele>
        <time>2014-08-31T16:37:48Z</time>
      </trkpt>
      <trkpt lat="50.42355" lon="4.35549">
        <ele>204.24</ele>
        <time>2014-08-31T16:37:56Z</time>
      </trkpt>
      <trkpt lat="50.42382" lon="4.35592">
        <ele>203.63</ele>
        <time>2014-08-31T16:38:03Z</time>
      </trkpt>
      <trkpt lat="50.42429" lon="4.35669">
        <ele>203.29</ele>
        <time>2014-08-31T16:38:11Z</time>
      </trkpt>
      <trkpt lat="50.42518" lon="4.35808">
        <ele>202.83</ele>
        <time>2014-08-31T16:38:23Z</time>
      </trkpt>
      <trkpt lat="50.42628" lon="4.3599">
        <ele>201.78</ele>
        <time>2014-08-31T16:38:37Z</time>
      </trkpt>
      <trkpt lat="50.42697" lon="4.36137">
        <ele>198.41</ele>
        <time>2014-08-31T16:38:46Z</time>
      </trkpt>
      <trkpt lat="50.42751" lon="4.36245">
        <ele>194.84</ele>
        <time>2014-08-31T16:38:52Z</time>
      </trkpt>
      <trkpt lat="50.42794" lon="4.36333">
        <ele>191.26</ele>
        <time>2014-08-31T16:38:57Z</time>
      </trkpt>
      <trkpt lat="50.42828" lon="4.36404">
        <ele>187.92</ele>
        <time>2014-08-31T16:39:01Z</time>
      </trkpt>
      <trkpt lat="50.42862" lon="4.36474">
        <ele>184.53</ele>
        <time>2014-08-31T16:39:05Z</time>
      </trkpt>
      <trkpt lat="50.4291" lon="4.36573">
        <ele>181.39</ele>
        <time>2014-08-31T16:39:11Z</time>
      </trkpt>
      <trkpt lat="50.42971" lon="4.36697">
        <ele>178.35</ele>
        <time>2014-08-31T16:39:19Z</time>
      </trkpt>
      <trkpt lat="50.4308" lon="4.36925">
        <ele>175.61</ele>
        <time>2014-08-31T16:39:34Z</time>
      </trkpt>
      <trkpt lat="50.43148" lon="4.37087">
        <ele>172.29</ele>
        <time>2014-08-31T16:39:46Z</time>
      </trkpt>
      <trkpt lat="50.43161" lon="4.37136">
        <ele>169.39</ele>
        <time>2014-08-31T16:39:53Z</time>
      </trkpt>
      <trkpt lat="50.43168" lon="4.37165">
        <ele>167.21</ele>
        <time>2014-08-31T16:40:04Z</time>
      </trkpt>
      <trkpt lat="50.43191" lon="4.37254">
        <ele>167.92</ele>
        <time>2014-08-31T16:40:12Z</time>
      </trkpt>
      <trkpt lat="50.432" lon="4.37283">
        <ele>168.08</ele>
        <time>2014-08-31T16:40:15Z</time>
      </trkpt>
      <trkpt lat="50.43205" lon="4.37291">
        <ele>167.99</ele>
        <time>2014-08-31T16:40:16Z</time>
      </trkpt>
      <trkpt lat="50.43211" lon="4.37298">
        <ele>167.86</ele>
        <time>2014-08-31T16:40:17Z</time>
      </trkpt>
      <trkpt lat="50.43218" lon="4.37305">
        <ele>167.71</ele>
        <time>2014-08-31T16:40:18Z</time>
      </trkpt>
      <trkpt lat="50.43226" lon="4.3731">
        <ele>167.56</ele>
        <time>2014-08-31T16:40:19Z</time>
      </trkpt>
      <trkpt lat="50.43234" lon="4.37316">
        <ele>167.42</ele>
        <time>2014-08-31T16:40:20Z</time>
      </trkpt>
      <trkpt lat="50.43308" lon="4.37361">
        <ele>165.78</ele>
        <time>2014-08-31T16:40:28Z</time>
      </trkpt>
      <trkpt lat="50.43316" lon="4.37368">
        <ele>165.43</ele>
        <time>2014-08-31T16:40:29Z</time>
      </trkpt>
      <trkpt lat="50.43321" lon="4.37376">
        <ele>165.05</ele>
        <time>2014-08-31T16:40:30Z</time>
      </trkpt>
      <trkpt lat="50.43326" lon="4.37386">
        <ele>164.71</ele>
        <time>2014-08-31T16:40:31Z</time>
      </trkpt>
      <trkpt lat="50.43329" lon="4.37398">
        <ele>164.44</ele>
        <time>2014-08-31T16:40:32Z</time>
      </trkpt>
      <trkpt lat="50.43332" lon="4.37412">
        <ele>164.22</ele>
        <time>2014-08-31T16:40:33Z</time>
      </trkpt>
      <trkpt lat="50.43341" lon="4.37455">
        <ele>163.73</ele>
        <time>2014-08-31T16:40:36Z</time>
      </trkpt>
      <trkpt lat="50.43342" lon="4.3747">
        <ele>163.54</ele>
        <time>2014-08-31T16:40:37Z</time>
      </trkpt>
      <trkpt lat="50.43343" lon="4.37485">
        <ele>163.34</ele>
        <time>2014-08-31T16:40:38Z</time>
      </trkpt>
      <trkpt lat="50.43353" lon="4.37667">
        <ele>160.77</ele>
        <time>2014-08-31T16:40:49Z</time>
      </trkpt>
      <trkpt lat="50.43391" lon="4.3783">
        <ele>158.68</ele>
        <time>2014-08-31T16:41:00Z</time>
      </trkpt>
      <trkpt lat="50.43425" lon="4.37946">
        <ele>156.55</ele>
        <time>2014-08-31T16:41:09Z</time>
      </trkpt>
      <trkpt lat="50.43472" lon="4.38082">
        <ele>154.51</ele>
        <time>2014-08-31T16:41:20Z</time>
      </trkpt>
      <trkpt lat="50.43514" lon="4.38209">
        <ele>153.76</ele>
        <time>2014-08-31T16:41:31Z</time>
      </trkpt>
      <trkpt lat="50.43578" lon="4.38357">
        <ele>151.51</ele>
        <time>2014-08-31T16:41:44Z</time>
      </trkpt>
      <trkpt lat="50.4361" lon="4.38459">
        <ele>148.33</ele>
        <time>2014-08-31T16:41:53Z</time>
      </trkpt>
      <trkpt lat="50.43637" lon="4.3856">
        <ele>144.88</ele>
        <time>2014-08-31T16:42:00Z</time>
      </trkpt>
      <trkpt lat="50.43652" lon="4.38617">
        <ele>141.57</ele>
        <time>2014-08-31T16:42:06Z</time>
      </trkpt>
      <trkpt lat="50.43655" lon="4.38629">
        <ele>138.89</ele>
        <time>2014-08-31T16:42:12Z</time>
      </trkpt>
      <trkpt lat="50.43658" lon="4.3863">
        <ele>138.68</ele>
        <time>2014-08-31T16:42:13Z</time>
      </trkpt>
      <trkpt lat="50.43662" lon="4.3863">
        <ele>138.52</ele>
        <time>2014-08-31T16:42:14Z</time>
      </trkpt>
      <trkpt lat="50.4372" lon="4.38616">
        <ele>137.58</ele>
        <time>2014-08-31T16:42:21Z</time>
      </trkpt>
      <trkpt lat="50.43798" lon="4.38609">
        <ele>135.11</ele>
        <time>2014-08-31T16:42:28Z</time>
      </trkpt>
      <trkpt lat="50.43809" lon="4.38613">
        <ele>134.64</ele>
        <time>2014-08-31T16:42:29Z</time>
      </trkpt>
      <trkpt lat="50.43902" lon="4.38672">
        <ele>131.76</ele>
        <time>2014-08-31T16:42:38Z</time>
      </trkpt>
      <trkpt lat="50.43909" lon="4.38681">
        <ele>131.75</ele>
        <time>2014-08-31T16:42:39Z</time>
      </trkpt>
      <trkpt lat="50.43914" lon="4.3869">
        <ele>131.77</ele>
        <time>2014-08-31T16:42:40Z</time>
      </trkpt>
      <trkpt lat="50.43918" lon="4.38701">
        <ele>131.84</ele>
        <time>2014-08-31T16:42:41Z</time>
      </trkpt>
      <trkpt lat="50.43921" lon="4.38714">
        <ele>131.99</ele>
        <time>2014-08-31T16:42:42Z</time>
      </trkpt>
      <trkpt lat="50.43923" lon="4.38727">
        <ele>132.2</ele>
        <time>2014-08-31T16:42:43Z</time>
      </trkpt>
      <trkpt lat="50.43932" lon="4.38773">
        <ele>132.97</ele>
        <time>2014-08-31T16:42:50Z</time>
      </trkpt>
      <trkpt lat="50.43951" lon="4.38839">
        <ele>133.64</ele>
        <time>2014-08-31T16:42:57Z</time>
      </trkpt>
      <trkpt lat="50.44016" lon="4.38992">
        <ele>136.84</ele>
        <time>2014-08-31T16:43:08Z</time>
      </trkpt>
      <trkpt lat="50.44066" lon="4.39152">
        <ele>138.01</ele>
        <time>2014-08-31T16:43:18Z</time>
      </trkpt>
      <trkpt lat="50.44115" lon="4.39304">
        <ele>136.01</ele>
        <time>2014-08-31T16:43:29Z</time>
      </trkpt>
      <trkpt lat="50.44177" lon="4.39409">
        <ele>132.48</ele>
        <time>2014-08-31T16:43:39Z</time>
      </trkpt>
      <trkpt lat="50.44184" lon="4.39416">
        <ele>132.01</ele>
        <time>2014-08-31T16:43:40Z</time>
      </trkpt>
      <trkpt lat="50.44191" lon="4.39426">
        <ele>131.34</ele>
        <time>2014-08-31T16:43:41Z</time>
      </trkpt>
      <trkpt lat="50.442" lon="4.39432">
        <ele>131.13</ele>
        <time>2014-08-31T16:43:42Z</time>
      </trkpt>
      <trkpt lat="50.44267" lon="4.39495">
        <ele>129.36</ele>
        <time>2014-08-31T16:43:51Z</time>
      </trkpt>
      <trkpt lat="50.4427" lon="4.39494">
        <ele>128.08</ele>
        <time>2014-08-31T16:43:58Z</time>
      </trkpt>
      <trkpt lat="50.44284" lon="4.395">
        <ele>127.86</ele>
        <time>2014-08-31T16:44:04Z</time>
      </trkpt>
      <trkpt lat="50.44287" lon="4.39497">
        <ele>127.83</ele>
        <time>2014-08-31T16:44:05Z</time>
      </trkpt>
      <trkpt lat="50.44289" lon="4.39492">
        <ele>127.83</ele>
        <time>2014-08-31T16:44:06Z</time>
      </trkpt>
      <trkpt lat="50.44297" lon="4.39477">
        <ele>127.8</ele>
        <time>2014-08-31T16:44:09Z</time>
      </trkpt>
      <trkpt lat="50.44302" lon="4.39474">
        <ele>127.8</ele>
        <time>2014-08-31T16:44:10Z</time>
      </trkpt>
      <trkpt lat="50.44307" lon="4.39471">
        <ele>127.8</ele>
        <time>2014-08-31T16:44:11Z</time>
      </trkpt>
      <trkpt lat="50.44373" lon="4.39447">
        <ele>128.61</ele>
        <time>2014-08-31T16:44:20Z</time>
      </trkpt>
      <trkpt lat="50.44386" lon="4.39448">
        <ele>129.04</ele>
        <time>2014-08-31T16:44:22Z</time>
      </trkpt>
      <trkpt lat="50.44392" lon="4.3945">
        <ele>129.24</ele>
        <time>2014-08-31T16:44:23Z</time>
      </trkpt>
      <trkpt lat="50.44398" lon="4.39452">
        <ele>129.43</ele>
        <time>2014-08-31T16:44:24Z</time>
      </trkpt>
      <trkpt lat="50.44404" lon="4.39456">
        <ele>129.59</ele>
        <time>2014-08-31T16:44:25Z</time>
      </trkpt>
      <trkpt lat="50.44408" lon="4.39461">
        <ele>129.73</ele>
        <time>2014-08-31T16:44:26Z</time>
      </trkpt>
      <trkpt lat="50.44412" lon="4.39467">
        <ele>129.85</ele>
        <time>2014-08-31T16:44:27Z</time>
      </trkpt>
      <trkpt lat="50.44416" lon="4.39472">
        <ele>129.97</ele>
        <time>2014-08-31T16:44:28Z</time>
      </trkpt>
      <trkpt lat="50.4442" lon="4.39477">
        <ele>130.19</ele>
        <time>2014-08-31T16:44:29Z</time>
      </trkpt>
      <trkpt lat="50.44425" lon="4.39477">
        <ele>130.3</ele>
        <time>2014-08-31T16:44:30Z</time>
      </trkpt>
      <trkpt lat="50.44431" lon="4.39474">
        <ele>130.4</ele>
        <time>2014-08-31T16:44:31Z</time>
      </trkpt>
      <trkpt lat="50.44437" lon="4.39468">
        <ele>130.48</ele>
        <time>2014-08-31T16:44:32Z</time>
      </trkpt>
      <trkpt lat="50.44444" lon="4.39462">
        <ele>130.55</ele>
        <time>2014-08-31T16:44:33Z</time>
      </trkpt>
      <trkpt lat="50.44453" lon="4.39458">
        <ele>130.58</ele>
        <time>2014-08-31T16:44:34Z</time>
      </trkpt>
      <trkpt lat="50.44461" lon="4.39455">
        <ele>130.52</ele>
        <time>2014-08-31T16:44:35Z</time>
      </trkpt>
      <trkpt lat="50.44471" lon="4.39454">
        <ele>130.38</ele>
        <time>2014-08-31T16:44:36Z</time>
      </trkpt>
      <trkpt lat="50.44484" lon="4.39457">
        <ele>130.19</ele>
        <time>2014-08-31T16:44:37Z</time>
      </trkpt>
      <trkpt lat="50.44497" lon="4.3946">
        <ele>130.02</ele>
        <time>2014-08-31T16:44:38Z</time>
      </trkpt>
      <trkpt lat="50.44512" lon="4.39464">
        <ele>129.89</ele>
        <time>2014-08-31T16:44:39Z</time>
      </trkpt>
      <trkpt lat="50.44658" lon="4.39494">
        <ele>130.75</ele>
        <time>2014-08-31T16:44:48Z</time>
      </trkpt>
      <trkpt lat="50.44816" lon="4.39523">
        <ele>132.97</ele>
        <time>2014-08-31T16:44:59Z</time>
      </trkpt>
      <trkpt lat="50.44935" lon="4.39545">
        <ele>133.33</ele>
        <time>2014-08-31T16:45:08Z</time>
      </trkpt>
      <trkpt lat="50.44996" lon="4.39556">
        <ele>132.48</ele>
        <time>2014-08-31T16:45:15Z</time>
      </trkpt>
      <trkpt lat="50.4506" lon="4.39567">
        <ele>131.5</ele>
        <time>2014-08-31T16:45:24Z</time>
      </trkpt>
      <trkpt lat="50.45089" lon="4.39577">
        <ele>131.71</ele>
        <time>2014-08-31T16:45:27Z</time>
      </trkpt>
      <trkpt lat="50.45098" lon="4.39584">
        <ele>131.78</ele>
        <time>2014-08-31T16:45:28Z</time>
      </trkpt>
      <trkpt lat="50.45108" lon="4.39593">
        <ele>131.88</ele>
        <time>2014-08-31T16:45:29Z</time>
      </trkpt>
      <trkpt lat="50.45163" lon="4.39651">
        <ele>132.04</ele>
        <time>2014-08-31T16:45:37Z</time>
      </trkpt>
      <trkpt lat="50.45219" lon="4.39709">
        <ele>132.38</ele>
        <time>2014-08-31T16:45:45Z</time>
      </trkpt>
      <trkpt lat="50.45283" lon="4.3977">
        <ele>133.29</ele>
        <time>2014-08-31T16:45:51Z</time>
      </trkpt>
      <trkpt lat="50.45295" lon="4.39777">
        <ele>133.54</ele>
        <time>2014-08-31T16:45:52Z</time>
      </trkpt>
      <trkpt lat="50.45308" lon="4.39782">
        <ele>133.87</ele>
        <time>2014-08-31T16:45:53Z</time>
      </trkpt>
      <trkpt lat="50.45384" lon="4.39796">
        <ele>136.59</ele>
        <time>2014-08-31T16:45:59Z</time>
      </trkpt>
      <trkpt lat="50.45396" lon="4.39791">
        <ele>136.99</ele>
        <time>2014-08-31T16:46:00Z</time>
      </trkpt>
      <trkpt lat="50.45407" lon="4.39785">
        <ele>137.35</ele>
        <time>2014-08-31T16:46:01Z</time>
      </trkpt>
      <trkpt lat="50.45445" lon="4.39763">
        <ele>138.63</ele>
        <time>2014-08-31T16:46:05Z</time>
      </trkpt>
      <trkpt lat="50.45454" lon="4.39761">
        <ele>138.84</ele>
        <time>2014-08-31T16:46:06Z</time>
      </trkpt>
      <trkpt lat="50.45463" lon="4.39761">
        <ele>139.01</ele>
        <time>2014-08-31T16:46:07Z</time>
      </trkpt>
      <trkpt lat="50.45472" lon="4.39762">
        <ele>139.17</ele>
        <time>2014-08-31T16:46:08Z</time>
      </trkpt>
      <trkpt lat="50.45481" lon="4.39765">
        <ele>139.3</ele>
        <time>2014-08-31T16:46:09Z</time>
      </trkpt>
      <trkpt lat="50.4549" lon="4.39771">
        <ele>139.39</ele>
        <time>2014-08-31T16:46:10Z</time>
      </trkpt>
      <trkpt lat="50.45499" lon="4.39779">
        <ele>139.5</ele>
        <time>2014-08-31T16:46:11Z</time>
      </trkpt>
      <trkpt lat="50.45507" lon="4.3979">
        <ele>139.5</ele>
        <time>2014-08-31T16:46:12Z</time>
      </trkpt>
      <trkpt lat="50.45515" lon="4.39804">
        <ele>139.46</ele>
        <time>2014-08-31T16:46:13Z</time>
      </trkpt>
      <trkpt lat="50.45524" lon="4.39819">
        <ele>139.4</ele>
        <time>2014-08-31T16:46:14Z</time>
      </trkpt>
      <trkpt lat="50.45594" lon="4.3996">
        <ele>138.03</ele>
        <time>2014-08-31T16:46:23Z</time>
      </trkpt>
      <trkpt lat="50.45666" lon="4.40106">
        <ele>134.89</ele>
        <time>2014-08-31T16:46:33Z</time>
      </trkpt>
      <trkpt lat="50.45706" lon="4.40183">
        <ele>133.15</ele>
        <time>2014-08-31T16:46:39Z</time>
      </trkpt>
      <trkpt lat="50.45714" lon="4.40192">
        <ele>132.98</ele>
        <time>2014-08-31T16:46:40Z</time>
      </trkpt>
      <trkpt lat="50.45722" lon="4.40199">
        <ele>132.83</ele>
        <time>2014-08-31T16:46:41Z</time>
      </trkpt>
      <trkpt lat="50.45732" lon="4.40205">
        <ele>132.71</ele>
        <time>2014-08-31T16:46:42Z</time>
      </trkpt>
      <trkpt lat="50.45742" lon="4.40208">
        <ele>132.64</ele>
        <time>2014-08-31T16:46:43Z</time>
      </trkpt>
      <trkpt lat="50.45752" lon="4.40212">
        <ele>132.58</ele>
        <time>2014-08-31T16:46:44Z</time>
      </trkpt>
      <trkpt lat="50.45849" lon="4.40261">
        <ele>135.19</ele>
        <time>2014-08-31T16:46:54Z</time>
      </trkpt>
      <trkpt lat="50.45859" lon="4.40272">
        <ele>138.13</ele>
        <time>2014-08-31T16:46:59Z</time>
      </trkpt>
      <trkpt lat="50.4586" lon="4.40275">
        <ele>138.63</ele>
        <time>2014-08-31T16:47:00Z</time>
      </trkpt>
      <trkpt lat="50.45859" lon="4.40278">
        <ele>139.47</ele>
        <time>2014-08-31T16:47:01Z</time>
      </trkpt>
      <trkpt lat="50.45858" lon="4.40281">
        <ele>139.81</ele>
        <time>2014-08-31T16:47:02Z</time>
      </trkpt>
      <trkpt lat="50.45857" lon="4.40286">
        <ele>140.1</ele>
        <time>2014-08-31T16:47:03Z</time>
      </trkpt>
      <trkpt lat="50.45856" lon="4.40291">
        <ele>140.37</ele>
        <time>2014-08-31T16:47:04Z</time>
      </trkpt>
      <trkpt lat="50.45855" lon="4.40299">
        <ele>140.6</ele>
        <time>2014-08-31T16:47:05Z</time>
      </trkpt>
      <trkpt lat="50.45854" lon="4.40307">
        <ele>140.82</ele>
        <time>2014-08-31T16:47:06Z</time>
      </trkpt>
      <trkpt lat="50.45854" lon="4.40315">
        <ele>141.02</ele>
        <time>2014-08-31T16:47:07Z</time>
      </trkpt>
      <trkpt lat="50.45855" lon="4.40323">
        <ele>141.2</ele>
        <time>2014-08-31T16:47:08Z</time>
      </trkpt>
      <trkpt lat="50.45855" lon="4.40331">
        <ele>141.36</ele>
        <time>2014-08-31T16:47:09Z</time>
      </trkpt>
      <trkpt lat="50.45857" lon="4.40339">
        <ele>141.52</ele>
        <time>2014-08-31T16:47:10Z</time>
      </trkpt>
      <trkpt lat="50.45859" lon="4.40347">
        <ele>141.7</ele>
        <time>2014-08-31T16:47:11Z</time>
      </trkpt>
      <trkpt lat="50.45862" lon="4.40354">
        <ele>141.91</ele>
        <time>2014-08-31T16:47:12Z</time>
      </trkpt>
      <trkpt lat="50.45865" lon="4.40362">
        <ele>142.14</ele>
        <time>2014-08-31T16:47:13Z</time>
      </trkpt>
      <trkpt lat="50.45868" lon="4.40369">
        <ele>142.4</ele>
        <time>2014-08-31T16:47:14Z</time>
      </trkpt>
      <trkpt lat="50.45872" lon="4.40375">
        <ele>142.71</ele>
        <time>2014-08-31T16:47:15Z</time>
      </trkpt>
      <trkpt lat="50.45876" lon="4.40379">
        <ele>143.03</ele>
        <time>2014-08-31T16:47:16Z</time>
      </trkpt>
      <trkpt lat="50.45881" lon="4.40382">
        <ele>143.32</ele>
        <time>2014-08-31T16:47:17Z</time>
      </trkpt>
      <trkpt lat="50.45887" lon="4.40383">
        <ele>143.58</ele>
        <time>2014-08-31T16:47:18Z</time>
      </trkpt>
      <trkpt lat="50.45893" lon="4.40383">
        <ele>143.83</ele>
        <time>2014-08-31T16:47:19Z</time>
      </trkpt>
      <trkpt lat="50.459" lon="4.40382">
        <ele>144.1</ele>
        <time>2014-08-31T16:47:20Z</time>
      </trkpt>
      <trkpt lat="50.45996" lon="4.40372">
        <ele>143.02</ele>
        <time>2014-08-31T16:47:30Z</time>
      </trkpt>
      <trkpt lat="50.46036" lon="4.40361">
        <ele>139.99</ele>
        <time>2014-08-31T16:47:35Z</time>
      </trkpt>
      <trkpt lat="50.46039" lon="4.40357">
        <ele>136.85</ele>
        <time>2014-08-31T16:47:40Z</time>
      </trkpt>
      <trkpt lat="50.46076" lon="4.40343">
        <ele>135.43</ele>
        <time>2014-08-31T16:47:50Z</time>
      </trkpt>
      <trkpt lat="50.46144" lon="4.40327">
        <ele>136.6</ele>
        <time>2014-08-31T16:47:59Z</time>
      </trkpt>
      <trkpt lat="50.46147" lon="4.40329">
        <ele>136.69</ele>
        <time>2014-08-31T16:48:00Z</time>
      </trkpt>
      <trkpt lat="50.46149" lon="4.40331">
        <ele>136.79</ele>
        <time>2014-08-31T16:48:01Z</time>
      </trkpt>
      <trkpt lat="50.46152" lon="4.40336">
        <ele>136.87</ele>
        <time>2014-08-31T16:48:02Z</time>
      </trkpt>
      <trkpt lat="50.46154" lon="4.40342">
        <ele>136.96</ele>
        <time>2014-08-31T16:48:03Z</time>
      </trkpt>
      <trkpt lat="50.46155" lon="4.40349">
        <ele>137.08</ele>
        <time>2014-08-31T16:48:04Z</time>
      </trkpt>
      <trkpt lat="50.46157" lon="4.40357">
        <ele>137.23</ele>
        <time>2014-08-31T16:48:05Z</time>
      </trkpt>
      <trkpt lat="50.46171" lon="4.40463">
        <ele>139.08</ele>
        <time>2014-08-31T16:48:13Z</time>
      </trkpt>
      <trkpt lat="50.46179" lon="4.40507">
        <ele>139.4</ele>
        <time>2014-08-31T16:48:16Z</time>
      </trkpt>
      <trkpt lat="50.46183" lon="4.4052">
        <ele>139.41</ele>
        <time>2014-08-31T16:48:17Z</time>
      </trkpt>
      <trkpt lat="50.4619" lon="4.40532">
        <ele>139.34</ele>
        <time>2014-08-31T16:48:18Z</time>
      </trkpt>
      <trkpt lat="50.46198" lon="4.40543">
        <ele>139.29</ele>
        <time>2014-08-31T16:48:19Z</time>
      </trkpt>
      <trkpt lat="50.46207" lon="4.40555">
        <ele>139.25</ele>
        <time>2014-08-31T16:48:20Z</time>
      </trkpt>
      <trkpt lat="50.46289" lon="4.40643">
        <ele>135.83</ele>
        <time>2014-08-31T16:48:28Z</time>
      </trkpt>
      <trkpt lat="50.46298" lon="4.40654">
        <ele>135.35</ele>
        <time>2014-08-31T16:48:29Z</time>
      </trkpt>
      <trkpt lat="50.46306" lon="4.40666">
        <ele>134.95</ele>
        <time>2014-08-31T16:48:30Z</time>
      </trkpt>
      <trkpt lat="50.46312" lon="4.4068">
        <ele>134.64</ele>
        <time>2014-08-31T16:48:31Z</time>
      </trkpt>
      <trkpt lat="50.46316" lon="4.40694">
        <ele>134.38</ele>
        <time>2014-08-31T16:48:32Z</time>
      </trkpt>
      <trkpt lat="50.4632" lon="4.40711">
        <ele>134.16</ele>
        <time>2014-08-31T16:48:33Z</time>
      </trkpt>
      <trkpt lat="50.46323" lon="4.40729">
        <ele>133.99</ele>
        <time>2014-08-31T16:48:34Z</time>
      </trkpt>
      <trkpt lat="50.46349" lon="4.40877">
        <ele>134.1</ele>
        <time>2014-08-31T16:48:41Z</time>
      </trkpt>
      <trkpt lat="50.46351" lon="4.40897">
        <ele>134.18</ele>
        <time>2014-08-31T16:48:42Z</time>
      </trkpt>
      <trkpt lat="50.46351" lon="4.40917">
        <ele>134.34</ele>
        <time>2014-08-31T16:48:43Z</time>
      </trkpt>
      <trkpt lat="50.4635" lon="4.40936">
        <ele>134.43</ele>
        <time>2014-08-31T16:48:44Z</time>
      </trkpt>
      <trkpt lat="50.46348" lon="4.40955">
        <ele>134.53</ele>
        <time>2014-08-31T16:48:45Z</time>
      </trkpt>
      <trkpt lat="50.46344" lon="4.40973">
        <ele>134.64</ele>
        <time>2014-08-31T16:48:46Z</time>
      </trkpt>
      <trkpt lat="50.4634" lon="4.40993">
        <ele>134.77</ele>
        <time>2014-08-31T16:48:47Z</time>
      </trkpt>
      <trkpt lat="50.46301" lon="4.41175">
        <ele>136.25</ele>
        <time>2014-08-31T16:48:55Z</time>
      </trkpt>
      <trkpt lat="50.46252" lon="4.41404">
        <ele>138.65</ele>
        <time>2014-08-31T16:49:04Z</time>
      </trkpt>
      <trkpt lat="50.46235" lon="4.4155">
        <ele>140.83</ele>
        <time>2014-08-31T16:49:11Z</time>
      </trkpt>
      <trkpt lat="50.46236" lon="4.41569">
        <ele>141.02</ele>
        <time>2014-08-31T16:49:12Z</time>
      </trkpt>
      <trkpt lat="50.46243" lon="4.41616">
        <ele>141.43</ele>
        <time>2014-08-31T16:49:15Z</time>
      </trkpt>
      <trkpt lat="50.46248" lon="4.41626">
        <ele>141.59</ele>
        <time>2014-08-31T16:49:16Z</time>
      </trkpt>
      <trkpt lat="50.46254" lon="4.41634">
        <ele>141.72</ele>
        <time>2014-08-31T16:49:17Z</time>
      </trkpt>
      <trkpt lat="50.4626" lon="4.41641">
        <ele>141.83</ele>
        <time>2014-08-31T16:49:18Z</time>
      </trkpt>
      <trkpt lat="50.46266" lon="4.41646">
        <ele>141.94</ele>
        <time>2014-08-31T16:49:19Z</time>
      </trkpt>
      <trkpt lat="50.46271" lon="4.41651">
        <ele>142.12</ele>
        <time>2014-08-31T16:49:20Z</time>
      </trkpt>
      <trkpt lat="50.46274" lon="4.41655">
        <ele>142.31</ele>
        <time>2014-08-31T16:49:21Z</time>
      </trkpt>
      <trkpt lat="50.46277" lon="4.4166">
        <ele>142.47</ele>
        <time>2014-08-31T16:49:22Z</time>
      </trkpt>
      <trkpt lat="50.46278" lon="4.41663">
        <ele>142.63</ele>
        <time>2014-08-31T16:49:23Z</time>
      </trkpt>
      <trkpt lat="50.46279" lon="4.41665">
        <ele>142.78</ele>
        <time>2014-08-31T16:49:24Z</time>
      </trkpt>
      <trkpt lat="50.46279" lon="4.41667">
        <ele>142.91</ele>
        <time>2014-08-31T16:49:25Z</time>
      </trkpt>
      <trkpt lat="50.46279" lon="4.41671">
        <ele>143.03</ele>
        <time>2014-08-31T16:49:26Z</time>
      </trkpt>
      <trkpt lat="50.46276" lon="4.41686">
        <ele>143.31</ele>
        <time>2014-08-31T16:49:29Z</time>
      </trkpt>
      <trkpt lat="50.46271" lon="4.4171">
        <ele>143.58</ele>
        <time>2014-08-31T16:49:32Z</time>
      </trkpt>
      <trkpt lat="50.46274" lon="4.41756">
        <ele>144.36</ele>
        <time>2014-08-31T16:49:36Z</time>
      </trkpt>
      <trkpt lat="50.46284" lon="4.4176">
        <ele>144.51</ele>
        <time>2014-08-31T16:49:37Z</time>
      </trkpt>
      <trkpt lat="50.4629" lon="4.41766">
        <ele>144.64</ele>
        <time>2014-08-31T16:49:38Z</time>
      </trkpt>
      <trkpt lat="50.46297" lon="4.41772">
        <ele>144.77</ele>
        <time>2014-08-31T16:49:39Z</time>
      </trkpt>
      <trkpt lat="50.46305" lon="4.41777">
        <ele>144.9</ele>
        <time>2014-08-31T16:49:40Z</time>
      </trkpt>
      <trkpt lat="50.4631" lon="4.41784">
        <ele>145.05</ele>
        <time>2014-08-31T16:49:41Z</time>
      </trkpt>
      <trkpt lat="50.46316" lon="4.41792">
        <ele>145.22</ele>
        <time>2014-08-31T16:49:42Z</time>
      </trkpt>
      <trkpt lat="50.4632" lon="4.41802">
        <ele>145.39</ele>
        <time>2014-08-31T16:49:43Z</time>
      </trkpt>
      <trkpt lat="50.46322" lon="4.41816">
        <ele>145.54</ele>
        <time>2014-08-31T16:49:44Z</time>
      </trkpt>
      <trkpt lat="50.46324" lon="4.4183">
        <ele>145.73</ele>
        <time>2014-08-31T16:49:45Z</time>
      </trkpt>
      <trkpt lat="50.46325" lon="4.41845">
        <ele>145.96</ele>
        <time>2014-08-31T16:49:46Z</time>
      </trkpt>
      <trkpt lat="50.46327" lon="4.41873">
        <ele>146.35</ele>
        <time>2014-08-31T16:49:48Z</time>
      </trkpt>
      <trkpt lat="50.46329" lon="4.41885">
        <ele>146.49</ele>
        <time>2014-08-31T16:49:49Z</time>
      </trkpt>
      <trkpt lat="50.46333" lon="4.41895">
        <ele>146.59</ele>
        <time>2014-08-31T16:49:50Z</time>
      </trkpt>
      <trkpt lat="50.46336" lon="4.41905">
        <ele>146.67</ele>
        <time>2014-08-31T16:49:51Z</time>
      </trkpt>
      <trkpt lat="50.46338" lon="4.41914">
        <ele>146.74</ele>
        <time>2014-08-31T16:49:52Z</time>
      </trkpt>
      <trkpt lat="50.46337" lon="4.41922">
        <ele>146.79</ele>
        <time>2014-08-31T16:49:53Z</time>
      </trkpt>
      <trkpt lat="50.46333" lon="4.41922">
        <ele>146.85</ele>
        <time>2014-08-31T16:49:54Z</time>
      </trkpt>
      <trkpt lat="50.46328" lon="4.4192">
        <ele>146.93</ele>
        <time>2014-08-31T16:49:55Z</time>
      </trkpt>
      <trkpt lat="50.46323" lon="4.41914">
        <ele>147.05</ele>
        <time>2014-08-31T16:49:56Z</time>
      </trkpt>
      <trkpt lat="50.46318" lon="4.41906">
        <ele>147.16</ele>
        <time>2014-08-31T16:49:57Z</time>
      </trkpt>
      <trkpt lat="50.46298" lon="4.41879">
        <ele>147.63</ele>
        <time>2014-08-31T16:50:00Z</time>
      </trkpt>
      <trkpt lat="50.46289" lon="4.41873">
        <ele>147.82</ele>
        <time>2014-08-31T16:50:01Z</time>
      </trkpt>
      <trkpt lat="50.4628" lon="4.41869">
        <ele>148.03</ele>
        <time>2014-08-31T16:50:02Z</time>
      </trkpt>
      <trkpt lat="50.46269" lon="4.41867">
        <ele>148.23</ele>
        <time>2014-08-31T16:50:03Z</time>
      </trkpt>
      <trkpt lat="50.46258" lon="4.41869">
        <ele>148.47</ele>
        <time>2014-08-31T16:50:04Z</time>
      </trkpt>
      <trkpt lat="50.46246" lon="4.41872">
        <ele>148.76</ele>
        <time>2014-08-31T16:50:05Z</time>
      </trkpt>
      <trkpt lat="50.46236" lon="4.41879">
        <ele>149.07</ele>
        <time>2014-08-31T16:50:06Z</time>
      </trkpt>
      <trkpt lat="50.4623" lon="4.41892">
        <ele>149.44</ele>
        <time>2014-08-31T16:50:07Z</time>
      </trkpt>
      <trkpt lat="50.46224" lon="4.41906">
        <ele>149.91</ele>
        <time>2014-08-31T16:50:08Z</time>
      </trkpt>
      <trkpt lat="50.46221" lon="4.41924">
        <ele>150.4</ele>
        <time>2014-08-31T16:50:09Z</time>
      </trkpt>
      <trkpt lat="50.4622" lon="4.41942">
        <ele>150.92</ele>
        <time>2014-08-31T16:50:10Z</time>
      </trkpt>
      <trkpt lat="50.46222" lon="4.4196">
        <ele>151.53</ele>
        <time>2014-08-31T16:50:11Z</time>
      </trkpt>
      <trkpt lat="50.46227" lon="4.41977">
        <ele>152.21</ele>
        <time>2014-08-31T16:50:12Z</time>
      </trkpt>
      <trkpt lat="50.46235" lon="4.41996">
        <ele>152.92</ele>
        <time>2014-08-31T16:50:13Z</time>
      </trkpt>
      <trkpt lat="50.46243" lon="4.42013">
        <ele>153.66</ele>
        <time>2014-08-31T16:50:14Z</time>
      </trkpt>
      <trkpt lat="50.46249" lon="4.42029">
        <ele>154.45</ele>
        <time>2014-08-31T16:50:15Z</time>
      </trkpt>
      <trkpt lat="50.46255" lon="4.42047">
        <ele>155.27</ele>
        <time>2014-08-31T16:50:16Z</time>
      </trkpt>
      <trkpt lat="50.46259" lon="4.42065">
        <ele>156.1</ele>
        <time>2014-08-31T16:50:17Z</time>
      </trkpt>
      <trkpt lat="50.46261" lon="4.42084">
        <ele>156.88</ele>
        <time>2014-08-31T16:50:18Z</time>
      </trkpt>
      <trkpt lat="50.46263" lon="4.42104">
        <ele>157.59</ele>
        <time>2014-08-31T16:50:19Z</time>
      </trkpt>
      <trkpt lat="50.46264" lon="4.42124">
        <ele>158.21</ele>
        <time>2014-08-31T16:50:20Z</time>
      </trkpt>
      <trkpt lat="50.46269" lon="4.42213">
        <ele>161.24</ele>
        <time>2014-08-31T16:50:24Z</time>
      </trkpt>
      <trkpt lat="50.46273" lon="4.4232">
        <ele>164.46</ele>
        <time>2014-08-31T16:50:29Z</time>
      </trkpt>
      <trkpt lat="50.46281" lon="4.42423">
        <ele>167.53</ele>
        <time>2014-08-31T16:50:35Z</time>
      </trkpt>
      <trkpt lat="50.46309" lon="4.42558">
        <ele>170.63</ele>
        <time>2014-08-31T16:50:44Z</time>
      </trkpt>
      <trkpt lat="50.4635" lon="4.42646">
        <ele>173.67</ele>
        <time>2014-08-31T16:50:50Z</time>
      </trkpt>
      <trkpt lat="50.46358" lon="4.42657">
        <ele>174.12</ele>
        <time>2014-08-31T16:50:51Z</time>
      </trkpt>
      <trkpt lat="50.46367" lon="4.42667">
        <ele>174.58</ele>
        <time>2014-08-31T16:50:52Z</time>
      </trkpt>
      <trkpt lat="50.46438" lon="4.42748">
        <ele>177.04</ele>
        <time>2014-08-31T16:51:01Z</time>
      </trkpt>
      <trkpt lat="50.46447" lon="4.42759">
        <ele>177.5</ele>
        <time>2014-08-31T16:51:04Z</time>
      </trkpt>
      <trkpt lat="50.46447" lon="4.42763">
        <ele>177.66</ele>
        <time>2014-08-31T16:51:05Z</time>
      </trkpt>
      <trkpt lat="50.46446" lon="4.42768">
        <ele>177.82</ele>
        <time>2014-08-31T16:51:06Z</time>
      </trkpt>
      <trkpt lat="50.46443" lon="4.42773">
        <ele>177.99</ele>
        <time>2014-08-31T16:51:07Z</time>
      </trkpt>
      <trkpt lat="50.46438" lon="4.42777">
        <ele>178.18</ele>
        <time>2014-08-31T16:51:08Z</time>
      </trkpt>
      <trkpt lat="50.46433" lon="4.42782">
        <ele>178.36</ele>
        <time>2014-08-31T16:51:09Z</time>
      </trkpt>
      <trkpt lat="50.46427" lon="4.42787">
        <ele>178.69</ele>
        <time>2014-08-31T16:51:10Z</time>
      </trkpt>
      <trkpt lat="50.4642" lon="4.42793">
        <ele>178.92</ele>
        <time>2014-08-31T16:51:11Z</time>
      </trkpt>
      <trkpt lat="50.46349" lon="4.4283">
        <ele>181.72</ele>
        <time>2014-08-31T16:51:18Z</time>
      </trkpt>
      <trkpt lat="50.46263" lon="4.42867">
        <ele>184.86</ele>
        <time>2014-08-31T16:51:25Z</time>
      </trkpt>
      <trkpt lat="50.4612" lon="4.4293">
        <ele>188</ele>
        <time>2014-08-31T16:51:35Z</time>
      </trkpt>
      <trkpt lat="50.45981" lon="4.4299">
        <ele>188.94</ele>
        <time>2014-08-31T16:51:47Z</time>
      </trkpt>
      <trkpt lat="50.4588" lon="4.43034">
        <ele>190.27</ele>
        <time>2014-08-31T16:51:58Z</time>
      </trkpt>
      <trkpt lat="50.45852" lon="4.43043">
        <ele>190.6</ele>
        <time>2014-08-31T16:52:02Z</time>
      </trkpt>
      <trkpt lat="50.45846" lon="4.43041">
        <ele>190.6</ele>
        <time>2014-08-31T16:52:03Z</time>
      </trkpt>
      <trkpt lat="50.45841" lon="4.43039">
        <ele>190.6</ele>
        <time>2014-08-31T16:52:04Z</time>
      </trkpt>
      <trkpt lat="50.45835" lon="4.43036">
        <ele>190.59</ele>
        <time>2014-08-31T16:52:05Z</time>
      </trkpt>
      <trkpt lat="50.45829" lon="4.43032">
        <ele>190.58</ele>
        <time>2014-08-31T16:52:06Z</time>
      </trkpt>
      <trkpt lat="50.45745" lon="4.42994">
        <ele>190.33</ele>
        <time>2014-08-31T16:52:16Z</time>
      </trkpt>
      <trkpt lat="50.45607" lon="4.42933">
        <ele>189.2</ele>
        <time>2014-08-31T16:52:27Z</time>
      </trkpt>
      <trkpt lat="50.45467" lon="4.42833">
        <ele>189.57</ele>
        <time>2014-08-31T16:52:39Z</time>
      </trkpt>
      <trkpt lat="50.45374" lon="4.42749">
        <ele>186.51</ele>
        <time>2014-08-31T16:52:48Z</time>
      </trkpt>
      <trkpt lat="50.45277" lon="4.42678">
        <ele>184.95</ele>
        <time>2014-08-31T16:52:59Z</time>
      </trkpt>
      <trkpt lat="50.45273" lon="4.42672">
        <ele>184.82</ele>
        <time>2014-08-31T16:53:00Z</time>
      </trkpt>
      <trkpt lat="50.45264" lon="4.4266">
        <ele>184.67</ele>
        <time>2014-08-31T16:53:02Z</time>
      </trkpt>
      <trkpt lat="50.45259" lon="4.42657">
        <ele>184.71</ele>
        <time>2014-08-31T16:53:03Z</time>
      </trkpt>
      <trkpt lat="50.45253" lon="4.42656">
        <ele>184.81</ele>
        <time>2014-08-31T16:53:04Z</time>
      </trkpt>
      <trkpt lat="50.45246" lon="4.42656">
        <ele>184.95</ele>
        <time>2014-08-31T16:53:05Z</time>
      </trkpt>
      <trkpt lat="50.45239" lon="4.42655">
        <ele>185.16</ele>
        <time>2014-08-31T16:53:06Z</time>
      </trkpt>
      <trkpt lat="50.45232" lon="4.42653">
        <ele>185.44</ele>
        <time>2014-08-31T16:53:07Z</time>
      </trkpt>
      <trkpt lat="50.45224" lon="4.42649">
        <ele>185.73</ele>
        <time>2014-08-31T16:53:08Z</time>
      </trkpt>
      <trkpt lat="50.45216" lon="4.42645">
        <ele>186.03</ele>
        <time>2014-08-31T16:53:09Z</time>
      </trkpt>
      <trkpt lat="50.45167" lon="4.42601">
        <ele>189.06</ele>
        <time>2014-08-31T16:53:16Z</time>
      </trkpt>
      <trkpt lat="50.45155" lon="4.42575">
        <ele>189.94</ele>
        <time>2014-08-31T16:53:22Z</time>
      </trkpt>
      <trkpt lat="50.45156" lon="4.42568">
        <ele>190</ele>
        <time>2014-08-31T16:53:23Z</time>
      </trkpt>
      <trkpt lat="50.45159" lon="4.4256">
        <ele>190.03</ele>
        <time>2014-08-31T16:53:24Z</time>
      </trkpt>
      <trkpt lat="50.45185" lon="4.42452">
        <ele>188.61</ele>
        <time>2014-08-31T16:53:32Z</time>
      </trkpt>
      <trkpt lat="50.45201" lon="4.42358">
        <ele>185.36</ele>
        <time>2014-08-31T16:53:37Z</time>
      </trkpt>
      <trkpt lat="50.45208" lon="4.42307">
        <ele>182.5</ele>
        <time>2014-08-31T16:53:40Z</time>
      </trkpt>
      <trkpt lat="50.45208" lon="4.42272">
        <ele>179.36</ele>
        <time>2014-08-31T16:53:42Z</time>
      </trkpt>
      <trkpt lat="50.45211" lon="4.42198">
        <ele>175.82</ele>
        <time>2014-08-31T16:53:46Z</time>
      </trkpt>
      <trkpt lat="50.45215" lon="4.4208">
        <ele>172.45</ele>
        <time>2014-08-31T16:53:52Z</time>
      </trkpt>
      <trkpt lat="50.45215" lon="4.41963">
        <ele>170.04</ele>
        <time>2014-08-31T16:53:58Z</time>
      </trkpt>
      <trkpt lat="50.45216" lon="4.41945">
        <ele>169.74</ele>
        <time>2014-08-31T16:53:59Z</time>
      </trkpt>
      <trkpt lat="50.45219" lon="4.41927">
        <ele>169.49</ele>
        <time>2014-08-31T16:54:00Z</time>
      </trkpt>
      <trkpt lat="50.45251" lon="4.4174">
        <ele>166.44</ele>
        <time>2014-08-31T16:54:12Z</time>
      </trkpt>
      <trkpt lat="50.45251" lon="4.41713">
        <ele>164.59</ele>
        <time>2014-08-31T16:54:18Z</time>
      </trkpt>
      <trkpt lat="50.45248" lon="4.4171">
        <ele>164.41</ele>
        <time>2014-08-31T16:54:19Z</time>
      </trkpt>
      <trkpt lat="50.45244" lon="4.41708">
        <ele>164.28</ele>
        <time>2014-08-31T16:54:20Z</time>
      </trkpt>
      <trkpt lat="50.4524" lon="4.41707">
        <ele>164.18</ele>
        <time>2014-08-31T16:54:21Z</time>
      </trkpt>
      <trkpt lat="50.45235" lon="4.41706">
        <ele>164.11</ele>
        <time>2014-08-31T16:54:22Z</time>
      </trkpt>
      <trkpt lat="50.45177" lon="4.41707">
        <ele>165.72</ele>
        <time>2014-08-31T16:54:30Z</time>
      </trkpt>
      <trkpt lat="50.45158" lon="4.41709">
        <ele>166.64</ele>
        <time>2014-08-31T16:54:32Z</time>
      </trkpt>
      <trkpt lat="50.45148" lon="4.41708">
        <ele>167.09</ele>
        <time>2014-08-31T16:54:33Z</time>
      </trkpt>
      <trkpt lat="50.45138" lon="4.41705">
        <ele>167.58</ele>
        <time>2014-08-31T16:54:34Z</time>
      </trkpt>
      <trkpt lat="50.45128" lon="4.41699">
        <ele>168.12</ele>
        <time>2014-08-31T16:54:35Z</time>
      </trkpt>
      <trkpt lat="50.45119" lon="4.41693">
        <ele>168.69</ele>
        <time>2014-08-31T16:54:36Z</time>
      </trkpt>
      <trkpt lat="50.45109" lon="4.41686">
        <ele>169.26</ele>
        <time>2014-08-31T16:54:37Z</time>
      </trkpt>
      <trkpt lat="50.45037" lon="4.41637">
        <ele>172.36</ele>
        <time>2014-08-31T16:54:44Z</time>
      </trkpt>
      <trkpt lat="50.44983" lon="4.41607">
        <ele>174.12</ele>
        <time>2014-08-31T16:54:49Z</time>
      </trkpt>
      <trkpt lat="50.44972" lon="4.41607">
        <ele>174.56</ele>
        <time>2014-08-31T16:54:50Z</time>
      </trkpt>
      <trkpt lat="50.44907" lon="4.41602">
        <ele>178.47</ele>
        <time>2014-08-31T16:54:56Z</time>
      </trkpt>
      <trkpt lat="50.44855" lon="4.41605">
        <ele>181.47</ele>
        <time>2014-08-31T16:55:01Z</time>
      </trkpt>
      <trkpt lat="50.44844" lon="4.41602">
        <ele>182.01</ele>
        <time>2014-08-31T16:55:02Z</time>
      </trkpt>
      <trkpt lat="50.44834" lon="4.41597">
        <ele>182.54</ele>
        <time>2014-08-31T16:55:03Z</time>
      </trkpt>
      <trkpt lat="50.44809" lon="4.41584">
        <ele>183.87</ele>
        <time>2014-08-31T16:55:06Z</time>
      </trkpt>
      <trkpt lat="50.448" lon="4.41578">
        <ele>184.48</ele>
        <time>2014-08-31T16:55:08Z</time>
      </trkpt>
      <trkpt lat="50.44798" lon="4.41576">
        <ele>184.71</ele>
        <time>2014-08-31T16:55:09Z</time>
      </trkpt>
      <trkpt lat="50.44797" lon="4.41573">
        <ele>184.91</ele>
        <time>2014-08-31T16:55:10Z</time>
      </trkpt>
      <trkpt lat="50.44796" lon="4.41569">
        <ele>185.09</ele>
        <time>2014-08-31T16:55:11Z</time>
      </trkpt>
      <trkpt lat="50.44796" lon="4.41564">
        <ele>185.27</ele>
        <time>2014-08-31T16:55:12Z</time>
      </trkpt>
      <trkpt lat="50.44796" lon="4.41557">
        <ele>185.45</ele>
        <time>2014-08-31T16:55:13Z</time>
      </trkpt>
      <trkpt lat="50.44796" lon="4.4155">
        <ele>185.65</ele>
        <time>2014-08-31T16:55:14Z</time>
      </trkpt>
      <trkpt lat="50.44798" lon="4.41459">
        <ele>187.15</ele>
        <time>2014-08-31T16:55:22Z</time>
      </trkpt>
      <trkpt lat="50.44803" lon="4.41331">
        <ele>187.83</ele>
        <time>2014-08-31T16:55:32Z</time>
      </trkpt>
      <trkpt lat="50.44802" lon="4.41304">
        <ele>187.85</ele>
        <time>2014-08-31T16:55:35Z</time>
      </trkpt>
      <trkpt lat="50.44798" lon="4.41297">
        <ele>187.81</ele>
        <time>2014-08-31T16:55:36Z</time>
      </trkpt>
      <trkpt lat="50.44795" lon="4.41294">
        <ele>187.7</ele>
        <time>2014-08-31T16:55:37Z</time>
      </trkpt>
      <trkpt lat="50.44773" lon="4.41279">
        <ele>186.8</ele>
        <time>2014-08-31T16:55:44Z</time>
      </trkpt>
      <trkpt lat="50.44699" lon="4.41229">
        <ele>187.45</ele>
        <time>2014-08-31T16:55:52Z</time>
      </trkpt>
      <trkpt lat="50.44562" lon="4.41131">
        <ele>189.21</ele>
        <time>2014-08-31T16:56:03Z</time>
      </trkpt>
      <trkpt lat="50.44494" lon="4.41076">
        <ele>189.21</ele>
        <time>2014-08-31T16:56:11Z</time>
      </trkpt>
      <trkpt lat="50.44491" lon="4.41069">
        <ele>189.14</ele>
        <time>2014-08-31T16:56:12Z</time>
      </trkpt>
      <trkpt lat="50.44488" lon="4.41062">
        <ele>189.11</ele>
        <time>2014-08-31T16:56:13Z</time>
      </trkpt>
      <trkpt lat="50.44486" lon="4.41055">
        <ele>189.12</ele>
        <time>2014-08-31T16:56:14Z</time>
      </trkpt>
      <trkpt lat="50.44485" lon="4.41046">
        <ele>189.16</ele>
        <time>2014-08-31T16:56:15Z</time>
      </trkpt>
      <trkpt lat="50.44484" lon="4.41036">
        <ele>189.18</ele>
        <time>2014-08-31T16:56:16Z</time>
      </trkpt>
      <trkpt lat="50.44483" lon="4.41026">
        <ele>189.2</ele>
        <time>2014-08-31T16:56:17Z</time>
      </trkpt>
      <trkpt lat="50.4448" lon="4.41005">
        <ele>189.24</ele>
        <time>2014-08-31T16:56:19Z</time>
      </trkpt>
      <trkpt lat="50.44478" lon="4.40995">
        <ele>189.22</ele>
        <time>2014-08-31T16:56:20Z</time>
      </trkpt>
      <trkpt lat="50.44475" lon="4.40987">
        <ele>189.17</ele>
        <time>2014-08-31T16:56:21Z</time>
      </trkpt>
      <trkpt lat="50.44473" lon="4.4098">
        <ele>189.07</ele>
        <time>2014-08-31T16:56:22Z</time>
      </trkpt>
      <trkpt lat="50.44469" lon="4.40975">
        <ele>188.97</ele>
        <time>2014-08-31T16:56:23Z</time>
      </trkpt>
      <trkpt lat="50.44466" lon="4.40968">
        <ele>188.89</ele>
        <time>2014-08-31T16:56:24Z</time>
      </trkpt>
      <trkpt lat="50.44463" lon="4.40961">
        <ele>188.8</ele>
        <time>2014-08-31T16:56:25Z</time>
      </trkpt>
      <trkpt lat="50.4446" lon="4.40951">
        <ele>188.73</ele>
        <time>2014-08-31T16:56:26Z</time>
      </trkpt>
      <trkpt lat="50.44458" lon="4.40941">
        <ele>188.64</ele>
        <time>2014-08-31T16:56:27Z</time>
      </trkpt>
      <trkpt lat="50.44455" lon="4.4093">
        <ele>188.56</ele>
        <time>2014-08-31T16:56:28Z</time>
      </trkpt>
      <trkpt lat="50.44451" lon="4.40904">
        <ele>188.3</ele>
        <time>2014-08-31T16:56:30Z</time>
      </trkpt>
      <trkpt lat="50.44451" lon="4.4089">
        <ele>188.05</ele>
        <time>2014-08-31T16:56:31Z</time>
      </trkpt>
      <trkpt lat="50.44452" lon="4.40776">
        <ele>184.57</ele>
        <time>2014-08-31T16:56:38Z</time>
      </trkpt>
      <trkpt lat="50.44449" lon="4.40758">
        <ele>183.92</ele>
        <time>2014-08-31T16:56:39Z</time>
      </trkpt>
      <trkpt lat="50.44445" lon="4.40739">
        <ele>183.3</ele>
        <time>2014-08-31T16:56:40Z</time>
      </trkpt>
      <trkpt lat="50.4442" lon="4.40638">
        <ele>179.6</ele>
        <time>2014-08-31T16:56:45Z</time>
      </trkpt>
      <trkpt lat="50.44395" lon="4.40553">
        <ele>175.77</ele>
        <time>2014-08-31T16:56:49Z</time>
      </trkpt>
      <trkpt lat="50.44375" lon="4.40471">
        <ele>171.76</ele>
        <time>2014-08-31T16:56:53Z</time>
      </trkpt>
      <trkpt lat="50.44364" lon="4.4041">
        <ele>168.4</ele>
        <time>2014-08-31T16:56:56Z</time>
      </trkpt>
      <trkpt lat="50.44352" lon="4.4035">
        <ele>163.92</ele>
        <time>2014-08-31T16:56:59Z</time>
      </trkpt>
      <trkpt lat="50.44343" lon="4.40293">
        <ele>160.47</ele>
        <time>2014-08-31T16:57:02Z</time>
      </trkpt>
      <trkpt lat="50.44336" lon="4.4024">
        <ele>156.9</ele>
        <time>2014-08-31T16:57:05Z</time>
      </trkpt>
      <trkpt lat="50.44337" lon="4.40222">
        <ele>155.79</ele>
        <time>2014-08-31T16:57:06Z</time>
      </trkpt>
      <trkpt lat="50.44339" lon="4.40204">
        <ele>154.73</ele>
        <time>2014-08-31T16:57:07Z</time>
      </trkpt>
      <trkpt lat="50.44345" lon="4.40167">
        <ele>152.8</ele>
        <time>2014-08-31T16:57:09Z</time>
      </trkpt>
      <trkpt lat="50.44351" lon="4.40147">
        <ele>152</ele>
        <time>2014-08-31T16:57:10Z</time>
      </trkpt>
      <trkpt lat="50.44392" lon="4.40009">
        <ele>148.66</ele>
        <time>2014-08-31T16:57:17Z</time>
      </trkpt>
      <trkpt lat="50.44411" lon="4.39887">
        <ele>145.24</ele>
        <time>2014-08-31T16:57:24Z</time>
      </trkpt>
      <trkpt lat="50.44403" lon="4.39806">
        <ele>142.43</ele>
        <time>2014-08-31T16:57:29Z</time>
      </trkpt>
      <trkpt lat="50.44391" lon="4.39746">
        <ele>139.24</ele>
        <time>2014-08-31T16:57:34Z</time>
      </trkpt>
      <trkpt lat="50.44388" lon="4.39731">
        <ele>137.72</ele>
        <time>2014-08-31T16:57:36Z</time>
      </trkpt>
      <trkpt lat="50.44388" lon="4.39725">
        <ele>136.93</ele>
        <time>2014-08-31T16:57:37Z</time>
      </trkpt>
      <trkpt lat="50.44389" lon="4.39719">
        <ele>136.2</ele>
        <time>2014-08-31T16:57:38Z</time>
      </trkpt>
      <trkpt lat="50.44391" lon="4.39713">
        <ele>135.54</ele>
        <time>2014-08-31T16:57:39Z</time>
      </trkpt>
      <trkpt lat="50.44394" lon="4.39708">
        <ele>134.99</ele>
        <time>2014-08-31T16:57:40Z</time>
      </trkpt>
      <trkpt lat="50.44398" lon="4.39702">
        <ele>134.53</ele>
        <time>2014-08-31T16:57:41Z</time>
      </trkpt>
      <trkpt lat="50.44401" lon="4.39694">
        <ele>134.16</ele>
        <time>2014-08-31T16:57:42Z</time>
      </trkpt>
      <trkpt lat="50.44404" lon="4.39685">
        <ele>133.85</ele>
        <time>2014-08-31T16:57:43Z</time>
      </trkpt>
      <trkpt lat="50.44408" lon="4.39675">
        <ele>133.61</ele>
        <time>2014-08-31T16:57:44Z</time>
      </trkpt>
      <trkpt lat="50.44411" lon="4.39661">
        <ele>133.41</ele>
        <time>2014-08-31T16:57:45Z</time>
      </trkpt>
      <trkpt lat="50.44421" lon="4.39508">
        <ele>132.4</ele>
        <time>2014-08-31T16:57:57Z</time>
      </trkpt>
      <trkpt lat="50.44415" lon="4.39467">
        <ele>130.68</ele>
        <time>2014-08-31T16:58:07Z</time>
      </trkpt>
    </trkseg>
  </trk>
  <trk>
    <name><![CDATA[Tracé 001]]></name>
    <trkseg>
      <trkpt lat="50.41093" lon="4.32938">
        <ele>151.19</ele>
        <time>2014-08-31T17:08:52Z</time>
      </trkpt>
      <trkpt lat="50.41043" lon="4.32863">
        <ele>152.31</ele>
        <time>2014-08-31T17:09:01Z</time>
      </trkpt>
      <trkpt lat="50.41008" lon="4.32825">
        <ele>139.8</ele>
      </trkpt>
      <trkpt lat="50.40967" lon="4.3277">
        <ele>144.3</ele>
      </trkpt>
      <trkpt lat="50.40909" lon="4.32711">
        <ele>149</ele>
      </trkpt>
      <trkpt lat="50.40854" lon="4.3266">
        <ele>151.3</ele>
      </trkpt>
      <trkpt lat="50.40845" lon="4.32648">
        <ele>151.6</ele>
      </trkpt>
      <trkpt lat="50.40845" lon="4.32648">
        <ele>151.6</ele>
      </trkpt>
      <trkpt lat="50.40863" lon="4.3256">
        <ele>149</ele>
      </trkpt>
      <trkpt lat="50.40869" lon="4.32536">
        <ele>148.8</ele>
      </trkpt>
      <trkpt lat="50.40869" lon="4.32535">
        <ele>148.8</ele>
      </trkpt>
      <trkpt lat="50.40884" lon="4.32501">
        <ele>147.2</ele>
      </trkpt>
      <trkpt lat="50.40884" lon="4.325">
        <ele>147.2</ele>
      </trkpt>
      <trkpt lat="50.40901" lon="4.32465">
        <ele>146</ele>
      </trkpt>
      <trkpt lat="50.40848" lon="4.32483">
        <ele>147.7</ele>
      </trkpt>
      <trkpt lat="50.40848" lon="4.32483">
        <ele>147.7</ele>
      </trkpt>
      <trkpt lat="50.40833" lon="4.32503">
        <ele>148.1</ele>
      </trkpt>
      <trkpt lat="50.40808" lon="4.32516">
        <ele>149.9</ele>
      </trkpt>
      <trkpt lat="50.40808" lon="4.32516">
        <ele>149.9</ele>
      </trkpt>
      <trkpt lat="50.40801" lon="4.32524">
        <ele>150.2</ele>
      </trkpt>
    </trkseg>
  </trk>
</gpx>